createdAt,value
2023-05-21T00:00:24.326Z,70.81
2023-05-21T00:01:24.315Z,70.81
2023-05-21T00:02:24.373Z,70.87
2023-05-21T00:03:24.387Z,70.93
2023-05-21T00:04:24.326Z,70.85
2023-05-21T00:05:24.281Z,70.85
2023-05-21T00:06:24.311Z,70.89
2023-05-21T00:07:24.247Z,70.91
2023-05-21T00:08:24.275Z,70.90
2023-05-21T00:09:24.239Z,70.86
2023-05-21T00:10:24.239Z,70.91
2023-05-21T00:11:24.212Z,70.82
2023-05-21T00:12:24.219Z,70.85
2023-05-21T00:13:24.225Z,70.88
2023-05-21T00:14:24.192Z,70.96
2023-05-21T00:15:24.177Z,70.94
2023-05-21T00:16:24.232Z,71.02
2023-05-21T00:17:24.233Z,71.01
2023-05-21T00:18:24.139Z,70.97
2023-05-21T00:19:24.190Z,70.93
2023-05-21T00:20:24.118Z,71.03
2023-05-21T00:21:24.109Z,71.05
2023-05-21T00:22:24.115Z,71.12
2023-05-21T00:23:24.090Z,71.17
2023-05-21T00:24:24.096Z,71.12
2023-05-21T00:25:24.065Z,71.09
2023-05-21T00:26:24.066Z,71.11
2023-05-21T00:27:24.050Z,71.14
2023-05-21T00:28:24.033Z,71.12
2023-05-21T00:29:24.013Z,71.14
2023-05-21T00:30:24.015Z,71.22
2023-05-21T00:31:24.107Z,71.13
2023-05-21T00:32:24.069Z,71.16
2023-05-21T00:33:23.976Z,71.14
2023-05-21T00:34:23.986Z,71.17
2023-05-21T00:35:23.951Z,71.17
2023-05-21T00:36:23.954Z,71.22
2023-05-21T00:37:23.973Z,71.20
2023-05-21T00:38:23.918Z,71.27
2023-05-21T00:39:23.918Z,71.30
2023-05-21T00:40:23.902Z,71.44
2023-05-21T00:41:23.892Z,71.51
2023-05-21T00:42:23.878Z,71.63
2023-05-21T00:43:23.858Z,71.58
2023-05-21T00:44:23.880Z,71.61
2023-05-21T00:45:23.846Z,71.58
2023-05-21T00:46:23.981Z,71.61
2023-05-21T00:47:23.905Z,71.65
2023-05-21T00:48:23.802Z,71.70
2023-05-21T00:49:23.818Z,71.79
2023-05-21T00:50:23.799Z,71.87
2023-05-21T00:51:23.783Z,71.83
2023-05-21T00:52:23.773Z,71.86
2023-05-21T00:53:23.788Z,71.92
2023-05-21T00:54:23.746Z,71.90
2023-05-21T00:55:23.742Z,71.90
2023-05-21T00:56:23.713Z,71.95
2023-05-21T00:57:23.710Z,72.07
2023-05-21T00:58:23.733Z,72.12
2023-05-21T00:59:23.710Z,72.07
2023-05-21T01:00:23.674Z,72.11
2023-05-21T01:01:23.763Z,72.04
2023-05-21T01:02:23.726Z,72.15
2023-05-21T01:03:23.802Z,72.17
2023-05-21T01:04:23.661Z,72.13
2023-05-21T01:05:23.660Z,72.27
2023-05-21T01:06:23.603Z,72.23
2023-05-21T01:07:23.613Z,72.24
2023-05-21T01:08:23.626Z,72.30
2023-05-21T01:09:23.604Z,72.32
2023-05-21T01:10:23.581Z,72.31
2023-05-21T01:11:23.562Z,72.35
2023-05-21T01:12:23.556Z,72.40
2023-05-21T01:13:23.553Z,72.36
2023-05-21T01:14:23.544Z,72.46
2023-05-21T01:15:23.524Z,72.41
2023-05-21T01:16:23.525Z,72.41
2023-05-21T01:17:23.499Z,72.44
2023-05-21T01:18:23.534Z,72.49
2023-05-21T01:19:23.498Z,72.48
2023-05-21T01:20:23.464Z,72.49
2023-05-21T01:21:23.459Z,72.55
2023-05-21T01:22:23.448Z,72.56
2023-05-21T01:23:23.436Z,72.68
2023-05-21T01:24:23.438Z,72.77
2023-05-21T01:25:23.415Z,72.70
2023-05-21T01:26:23.378Z,72.78
2023-05-21T01:27:23.389Z,72.72
2023-05-21T01:28:23.393Z,72.81
2023-05-21T01:29:23.349Z,72.84
2023-05-21T01:30:23.360Z,72.88
2023-05-21T01:31:23.367Z,72.91
2023-05-21T01:32:23.329Z,72.87
2023-05-21T01:33:23.434Z,72.95
2023-05-21T01:34:23.334Z,72.96
2023-05-21T01:35:23.323Z,73.05
2023-05-21T01:36:23.281Z,73.09
2023-05-21T01:37:23.263Z,73.13
2023-05-21T01:38:23.262Z,73.21
2023-05-21T01:39:23.315Z,73.26
2023-05-21T01:40:23.244Z,73.34
2023-05-21T01:41:23.230Z,73.30
2023-05-21T01:42:23.229Z,73.25
2023-05-21T01:43:23.203Z,73.25
2023-05-21T01:44:23.223Z,73.39
2023-05-21T01:45:23.188Z,73.39
2023-05-21T01:46:23.226Z,73.46
2023-05-21T01:47:23.203Z,73.46
2023-05-21T01:48:23.168Z,73.42
2023-05-21T01:49:23.151Z,73.46
2023-05-21T01:50:23.125Z,73.43
2023-05-21T01:51:23.134Z,73.35
2023-05-21T01:52:23.106Z,73.32
2023-05-21T01:53:23.136Z,73.31
2023-05-21T01:54:23.106Z,73.33
2023-05-21T01:55:23.079Z,73.37
2023-05-21T01:56:23.114Z,73.39
2023-05-21T01:57:23.050Z,73.39
2023-05-21T01:58:23.037Z,73.39
2023-05-21T01:59:23.048Z,73.36
2023-05-21T02:00:23.031Z,73.46
2023-05-21T02:01:23.034Z,73.45
2023-05-21T02:02:23.006Z,73.41
2023-05-21T02:03:23.136Z,73.42
2023-05-21T02:04:22.998Z,73.44
2023-05-21T02:05:22.983Z,73.40
2023-05-21T02:06:22.969Z,73.36
2023-05-21T02:07:22.957Z,73.46
2023-05-21T02:08:22.928Z,73.49
2023-05-21T02:09:22.961Z,73.56
2023-05-21T02:10:22.932Z,73.55
2023-05-21T02:11:22.909Z,73.59
2023-05-21T02:12:22.898Z,73.60
2023-05-21T02:13:25.773Z,73.65
2023-05-21T02:14:22.880Z,73.64
2023-05-21T02:15:22.868Z,73.60
2023-05-21T02:16:22.919Z,73.62
2023-05-21T02:17:22.835Z,73.63
2023-05-21T02:18:22.826Z,73.63
2023-05-21T02:19:22.859Z,73.66
2023-05-21T02:20:22.912Z,73.63
2023-05-21T02:21:22.795Z,73.60
2023-05-21T02:22:22.813Z,73.59
2023-05-21T02:23:22.775Z,73.63
2023-05-21T02:24:22.774Z,73.63
2023-05-21T02:25:22.781Z,73.64
2023-05-21T02:26:22.751Z,73.69
2023-05-21T02:27:22.748Z,73.71
2023-05-21T02:28:22.721Z,73.68
2023-05-21T02:29:22.723Z,73.73
2023-05-21T02:30:22.722Z,73.69
2023-05-21T02:31:22.695Z,73.82
2023-05-21T02:32:22.725Z,73.84
2023-05-21T02:33:22.692Z,73.77
2023-05-21T02:34:22.840Z,73.82
2023-05-21T02:35:22.659Z,73.87
2023-05-21T02:36:22.690Z,73.83
2023-05-21T02:37:22.638Z,73.84
2023-05-21T02:38:22.611Z,73.88
2023-05-21T02:39:22.600Z,73.99
2023-05-21T02:40:22.636Z,73.97
2023-05-21T02:41:22.571Z,74.02
2023-05-21T02:42:22.573Z,74.02
2023-05-21T02:43:22.594Z,74.06
2023-05-21T02:44:22.547Z,74.12
2023-05-21T02:45:22.546Z,74.11
2023-05-21T02:46:22.600Z,74.13
2023-05-21T02:47:22.512Z,74.11
2023-05-21T02:48:22.484Z,74.12
2023-05-21T02:49:22.502Z,74.21
2023-05-21T02:50:22.519Z,74.21
2023-05-21T02:51:22.471Z,74.26
2023-05-21T02:52:22.468Z,74.28
2023-05-21T02:53:22.464Z,74.29
2023-05-21T02:54:22.520Z,74.27
2023-05-21T02:55:22.433Z,74.28
2023-05-21T02:56:22.416Z,74.24
2023-05-21T02:57:22.395Z,74.31
2023-05-21T02:58:22.403Z,74.32
2023-05-21T02:59:22.372Z,74.34
2023-05-21T03:00:22.404Z,74.29
2023-05-21T03:01:22.381Z,74.31
2023-05-21T03:02:22.487Z,74.36
2023-05-21T03:03:22.489Z,74.38
2023-05-21T03:04:22.310Z,74.39
2023-05-21T03:05:22.404Z,74.36
2023-05-21T03:06:22.323Z,74.39
2023-05-21T03:07:22.301Z,74.36
2023-05-21T03:08:22.282Z,74.38
2023-05-21T03:09:22.274Z,74.39
2023-05-21T03:10:22.291Z,74.44
2023-05-21T03:11:22.291Z,74.48
2023-05-21T03:12:22.245Z,74.49
2023-05-21T03:13:22.252Z,74.54
2023-05-21T03:14:22.213Z,74.52
2023-05-21T03:15:22.206Z,74.50
2023-05-21T03:16:22.459Z,74.47
2023-05-21T03:17:22.178Z,74.43
2023-05-21T03:18:22.183Z,74.50
2023-05-21T03:19:22.196Z,74.55
2023-05-21T03:20:22.149Z,74.56
2023-05-21T03:21:22.143Z,74.56
2023-05-21T03:22:22.137Z,74.62
2023-05-21T03:23:22.123Z,74.66
2023-05-21T03:24:22.123Z,74.71
2023-05-21T03:25:22.111Z,74.72
2023-05-21T03:26:22.115Z,74.75
2023-05-21T03:27:22.086Z,74.80
2023-05-21T03:28:22.054Z,74.88
2023-05-21T03:29:22.058Z,74.90
2023-05-21T03:30:22.067Z,74.91
2023-05-21T03:31:22.062Z,74.90
2023-05-21T03:32:22.060Z,74.94
2023-05-21T03:33:22.033Z,74.96
2023-05-21T03:34:21.996Z,75.00
2023-05-21T03:35:21.990Z,74.95
2023-05-21T03:36:21.986Z,75.00
2023-05-21T03:37:21.971Z,74.98
2023-05-21T03:38:21.957Z,74.96
2023-05-21T03:39:21.968Z,74.98
2023-05-21T03:40:21.982Z,75.01
2023-05-21T03:41:21.963Z,74.99
2023-05-21T03:42:21.910Z,74.95
2023-05-21T03:43:21.910Z,75.01
2023-05-21T03:44:21.898Z,74.97
2023-05-21T03:45:21.917Z,74.94
2023-05-21T03:46:21.923Z,75.03
2023-05-21T03:47:21.902Z,75.07
2023-05-21T03:48:21.842Z,75.07
2023-05-21T03:49:21.852Z,75.13
2023-05-21T03:50:21.815Z,75.13
2023-05-21T03:51:21.828Z,75.15
2023-05-21T03:52:21.841Z,75.19
2023-05-21T03:53:21.781Z,75.25
2023-05-21T03:54:21.793Z,75.27
2023-05-21T03:55:21.782Z,75.32
2023-05-21T03:56:21.767Z,75.39
2023-05-21T03:57:21.769Z,75.35
2023-05-21T03:58:21.732Z,75.34
2023-05-21T03:59:21.748Z,75.40
2023-05-21T04:00:21.710Z,75.40
2023-05-21T04:01:21.715Z,75.40
2023-05-21T04:02:21.776Z,75.46
2023-05-21T04:03:21.783Z,75.39
2023-05-21T04:04:21.723Z,75.37
2023-05-21T04:05:21.663Z,75.34
2023-05-21T04:06:21.638Z,75.40
2023-05-21T04:07:21.662Z,75.30
2023-05-21T04:08:21.622Z,75.31
2023-05-21T04:09:21.634Z,75.43
2023-05-21T04:10:21.609Z,75.38
2023-05-21T04:11:21.602Z,75.40
2023-05-21T04:12:21.584Z,75.41
2023-05-21T04:13:21.588Z,75.57
2023-05-21T04:14:21.553Z,75.51
2023-05-21T04:15:21.577Z,75.57
2023-05-21T04:16:21.610Z,75.59
2023-05-21T04:17:21.571Z,75.61
2023-05-21T04:18:21.539Z,75.72
2023-05-21T04:19:21.595Z,75.69
2023-05-21T04:20:21.488Z,75.75
2023-05-21T04:21:21.477Z,75.79
2023-05-21T04:22:21.467Z,75.85
2023-05-21T04:23:21.487Z,75.87
2023-05-21T04:24:21.439Z,75.91
2023-05-21T04:25:21.455Z,75.91
2023-05-21T04:26:21.430Z,75.87
2023-05-21T04:27:21.433Z,75.86
2023-05-21T04:28:21.425Z,75.89
2023-05-21T04:29:21.408Z,75.91
2023-05-21T04:30:21.393Z,75.78
2023-05-21T04:31:21.428Z,75.88
2023-05-21T04:32:21.405Z,75.86
2023-05-21T04:33:21.374Z,75.97
2023-05-21T04:34:21.345Z,75.98
2023-05-21T04:35:21.339Z,75.92
2023-05-21T04:36:21.313Z,76.03
2023-05-21T04:37:21.315Z,76.07
2023-05-21T04:38:21.317Z,76.11
2023-05-21T04:39:21.311Z,76.12
2023-05-21T04:40:21.294Z,76.14
2023-05-21T04:41:21.281Z,76.10
2023-05-21T04:42:21.260Z,76.14
2023-05-21T04:43:21.272Z,76.18
2023-05-21T04:44:21.225Z,76.21
2023-05-21T04:45:21.270Z,76.13
2023-05-21T04:46:21.250Z,76.12
2023-05-21T04:47:21.232Z,76.11
2023-05-21T04:48:21.198Z,76.16
2023-05-21T04:49:21.164Z,76.14
2023-05-21T04:50:21.166Z,76.12
2023-05-21T04:51:21.155Z,76.11
2023-05-21T04:52:21.144Z,76.18
2023-05-21T04:53:21.148Z,76.14
2023-05-21T04:54:21.128Z,76.15
2023-05-21T04:55:21.109Z,76.11
2023-05-21T04:56:21.091Z,76.08
2023-05-21T04:57:21.083Z,76.05
2023-05-21T04:58:21.103Z,76.12
2023-05-21T04:59:21.065Z,76.19
2023-05-21T05:00:21.065Z,76.12
2023-05-21T05:01:21.133Z,76.06
2023-05-21T05:02:21.041Z,76.08
2023-05-21T05:03:21.090Z,76.07
2023-05-21T05:04:21.018Z,76.16
2023-05-21T05:05:21.028Z,76.33
2023-05-21T05:06:20.979Z,76.28
2023-05-21T05:07:20.982Z,76.18
2023-05-21T05:08:21.016Z,76.17
2023-05-21T05:09:20.968Z,76.13
2023-05-21T05:10:20.956Z,76.23
2023-05-21T05:11:20.935Z,76.27
2023-05-21T05:12:20.943Z,76.25
2023-05-21T05:13:20.943Z,76.44
2023-05-21T05:14:20.913Z,76.48
2023-05-21T05:15:20.930Z,76.61
2023-05-21T05:16:20.945Z,76.52
2023-05-21T05:17:20.870Z,76.57
2023-05-21T05:18:20.900Z,76.65
2023-05-21T05:19:20.913Z,76.70
2023-05-21T05:20:20.838Z,76.65
2023-05-21T05:21:20.856Z,76.58
2023-05-21T05:22:20.830Z,76.76
2023-05-21T05:23:20.817Z,76.65
2023-05-21T05:24:20.823Z,76.65
2023-05-21T05:25:20.767Z,76.73
2023-05-21T05:26:20.790Z,76.63
2023-05-21T05:27:20.765Z,76.75
2023-05-21T05:28:20.749Z,76.65
2023-05-21T05:29:20.750Z,76.67
2023-05-21T05:30:20.748Z,76.77
2023-05-21T05:31:20.788Z,76.77
2023-05-21T05:32:20.760Z,76.91
2023-05-21T05:33:20.692Z,76.95
2023-05-21T05:34:20.690Z,76.88
2023-05-21T05:35:20.684Z,76.90
2023-05-21T05:36:20.671Z,76.94
2023-05-21T05:37:20.699Z,76.88
2023-05-21T05:38:20.638Z,76.86
2023-05-21T05:39:20.646Z,76.87
2023-05-21T05:40:20.616Z,76.76
2023-05-21T05:41:20.617Z,76.72
2023-05-21T05:42:20.593Z,76.74
2023-05-21T05:43:20.582Z,76.65
2023-05-21T05:44:20.601Z,76.79
2023-05-21T05:45:20.587Z,76.62
2023-05-21T05:46:20.564Z,76.89
2023-05-21T05:47:20.570Z,76.79
2023-05-21T05:48:20.560Z,76.78
2023-05-21T05:49:20.513Z,76.64
2023-05-21T05:50:20.486Z,76.45
2023-05-21T05:51:20.495Z,76.33
2023-05-21T05:52:20.477Z,76.39
2023-05-21T05:53:20.486Z,76.69
2023-05-21T05:54:20.457Z,76.68
2023-05-21T05:55:20.456Z,76.73
2023-05-21T05:56:20.448Z,76.60
2023-05-21T05:57:20.433Z,76.49
2023-05-21T05:58:20.443Z,76.58
2023-05-21T05:59:20.405Z,76.83
2023-05-21T06:00:20.417Z,76.90
2023-05-21T06:01:20.413Z,76.77
2023-05-21T06:02:20.397Z,76.66
2023-05-21T06:03:20.499Z,76.48
2023-05-21T06:04:20.371Z,76.90
2023-05-21T06:05:20.396Z,76.97
2023-05-21T06:06:20.334Z,76.97
2023-05-21T06:07:20.314Z,76.96
2023-05-21T06:08:20.318Z,76.96
2023-05-21T06:09:20.313Z,76.94
2023-05-21T06:10:20.301Z,76.91
2023-05-21T06:11:20.295Z,76.85
2023-05-21T06:12:20.274Z,76.99
2023-05-21T06:13:20.272Z,76.95
2023-05-21T06:14:20.278Z,76.91
2023-05-21T06:15:20.226Z,77.02
2023-05-21T06:16:20.237Z,76.96
2023-05-21T06:17:20.273Z,76.86
2023-05-21T06:18:20.212Z,76.89
2023-05-21T06:19:20.295Z,76.64
2023-05-21T06:20:20.169Z,76.49
2023-05-21T06:21:20.177Z,76.39
2023-05-21T06:22:20.166Z,76.34
2023-05-21T06:23:20.123Z,76.28
2023-05-21T06:24:20.149Z,76.15
2023-05-21T06:25:20.127Z,75.82
2023-05-21T06:26:20.120Z,75.74
2023-05-21T06:27:20.119Z,75.41
2023-05-21T06:28:20.076Z,75.25
2023-05-21T06:29:20.101Z,75.03
2023-05-21T06:30:20.061Z,74.84
2023-05-21T06:31:20.070Z,74.79
2023-05-21T06:32:20.067Z,74.86
2023-05-21T06:33:20.144Z,74.83
2023-05-21T06:34:20.053Z,75.14
2023-05-21T06:35:20.028Z,74.84
2023-05-21T06:36:20.008Z,74.80
2023-05-21T06:37:19.988Z,74.41
2023-05-21T06:38:20.004Z,74.26
2023-05-21T06:39:19.970Z,74.26
2023-05-21T06:40:19.973Z,74.29
2023-05-21T06:41:19.930Z,74.12
2023-05-21T06:42:19.910Z,74.11
2023-05-21T06:43:19.922Z,74.20
2023-05-21T06:44:19.914Z,74.23
2023-05-21T06:45:19.895Z,74.02
2023-05-21T06:46:19.919Z,74.01
2023-05-21T06:47:19.889Z,73.98
2023-05-21T06:48:19.872Z,73.63
2023-05-21T06:49:19.879Z,73.69
2023-05-21T06:50:19.841Z,73.82
2023-05-21T06:51:19.837Z,73.74
2023-05-21T06:52:19.827Z,73.59
2023-05-21T06:53:19.808Z,73.53
2023-05-21T06:54:19.821Z,73.84
2023-05-21T06:55:19.796Z,73.89
2023-05-21T06:56:19.785Z,73.64
2023-05-21T06:57:19.768Z,73.64
2023-05-21T06:58:19.762Z,73.44
2023-05-21T06:59:19.761Z,73.08
2023-05-21T07:00:19.730Z,72.91
2023-05-21T07:01:19.830Z,72.88
2023-05-21T07:02:19.779Z,72.90
2023-05-21T07:03:19.830Z,73.07
2023-05-21T07:04:19.713Z,72.96
2023-05-21T07:05:19.688Z,73.10
2023-05-21T07:06:19.666Z,73.08
2023-05-21T07:07:19.686Z,73.19
2023-05-21T07:08:19.638Z,73.30
2023-05-21T07:09:19.629Z,72.97
2023-05-21T07:10:19.641Z,72.65
2023-05-21T07:11:19.614Z,72.53
2023-05-21T07:12:19.590Z,72.41
2023-05-21T07:13:19.602Z,72.29
2023-05-21T07:14:19.571Z,72.50
2023-05-21T07:15:19.584Z,72.80
2023-05-21T07:16:19.603Z,73.02
2023-05-21T07:17:19.560Z,72.97
2023-05-21T07:18:19.536Z,73.02
2023-05-21T07:19:19.645Z,72.94
2023-05-21T07:20:19.540Z,72.71
2023-05-21T07:21:19.503Z,72.94
2023-05-21T07:22:19.481Z,72.78
2023-05-21T07:23:19.503Z,72.51
2023-05-21T07:24:19.485Z,72.46
2023-05-21T07:25:19.448Z,72.34
2023-05-21T07:26:19.490Z,72.11
2023-05-21T07:28:20.435Z,71.44
2023-05-21T07:29:19.419Z,71.13
2023-05-21T07:30:19.418Z,70.81
2023-05-21T07:31:19.473Z,70.55
2023-05-21T07:32:19.420Z,70.48
2023-05-21T07:33:19.366Z,70.27
2023-05-21T07:34:19.367Z,70.11
2023-05-21T07:35:19.353Z,70.00
2023-05-21T07:36:19.359Z,69.53
2023-05-21T07:37:19.379Z,69.31
2023-05-21T07:38:19.332Z,69.21
2023-05-21T07:39:19.327Z,69.09
2023-05-21T07:40:19.292Z,69.14
2023-05-21T07:41:19.326Z,69.15
2023-05-21T07:42:26.288Z,69.01
2023-05-21T07:43:19.300Z,68.61
2023-05-21T07:44:19.246Z,68.33
2023-05-21T07:45:19.276Z,68.03
2023-05-21T07:46:19.268Z,67.98
2023-05-21T07:47:19.247Z,67.88
2023-05-21T07:48:19.203Z,67.49
2023-05-21T07:49:19.199Z,67.22
2023-05-21T07:50:19.198Z,67.07
2023-05-21T07:51:19.198Z,67.03
2023-05-21T07:52:19.225Z,67.26
2023-05-21T07:53:19.185Z,67.31
2023-05-21T07:54:19.144Z,67.55
2023-05-21T07:55:19.137Z,67.64
2023-05-21T07:56:19.122Z,67.72
2023-05-21T07:57:19.149Z,67.50
2023-05-21T07:58:19.127Z,67.44
2023-05-21T07:59:19.091Z,67.17
2023-05-21T08:00:19.110Z,66.77
2023-05-21T08:01:19.085Z,66.83
2023-05-21T08:02:19.147Z,66.53
2023-05-21T08:03:19.197Z,66.38
2023-05-21T08:04:19.256Z,66.24
2023-05-21T08:05:19.121Z,66.02
2023-05-21T08:06:19.008Z,65.96
2023-05-21T08:07:19.029Z,65.96
2023-05-21T08:08:19.003Z,65.81
2023-05-21T08:09:18.983Z,65.62
2023-05-21T08:10:19.512Z,65.32
2023-05-21T08:11:18.967Z,65.28
2023-05-21T08:12:18.982Z,65.23
2023-05-21T08:13:18.955Z,65.18
2023-05-21T08:14:18.940Z,65.12
2023-05-21T08:15:19.024Z,65.20
2023-05-21T08:16:19.067Z,65.43
2023-05-21T08:17:18.901Z,65.37
2023-05-21T08:18:18.939Z,65.53
2023-05-21T08:19:19.000Z,65.45
2023-05-21T08:20:18.932Z,65.31
2023-05-21T08:21:18.850Z,65.34
2023-05-21T08:22:18.872Z,65.38
2023-05-21T08:23:18.835Z,65.16
2023-05-21T08:24:18.830Z,65.34
2023-05-21T08:25:18.808Z,65.73
2023-05-21T08:26:18.798Z,66.06
2023-05-21T08:27:18.818Z,66.24
2023-05-21T08:28:18.771Z,66.35
2023-05-21T08:29:18.764Z,66.81
2023-05-21T08:30:18.754Z,66.95
2023-05-21T08:31:18.795Z,66.83
2023-05-21T08:32:18.751Z,66.99
2023-05-21T08:33:20.956Z,67.83
2023-05-21T08:34:18.744Z,67.83
2023-05-21T08:35:18.700Z,67.53
2023-05-21T08:36:18.697Z,67.61
2023-05-21T08:37:18.716Z,67.34
2023-05-21T08:38:18.680Z,67.65
2023-05-21T08:39:18.656Z,67.65
2023-05-21T08:40:18.665Z,67.69
2023-05-21T08:41:18.644Z,67.60
2023-05-21T08:42:32.888Z,67.53
2023-05-21T08:43:19.616Z,67.57
2023-05-21T08:44:18.599Z,67.63
2023-05-21T08:45:18.594Z,67.80
2023-05-21T08:46:18.667Z,67.90
2023-05-21T08:47:18.615Z,68.05
2023-05-21T08:48:18.579Z,68.13
2023-05-21T08:49:18.558Z,68.23
2023-05-21T08:50:18.556Z,68.07
2023-05-21T08:51:18.587Z,67.93
2023-05-21T08:52:18.583Z,68.66
2023-05-21T08:53:27.314Z,67.91
2023-05-21T08:54:19.550Z,67.38
2023-05-21T08:55:18.540Z,67.16
2023-05-21T08:56:18.529Z,67.09
2023-05-21T08:57:18.469Z,67.04
2023-05-21T08:58:18.454Z,67.14
2023-05-21T08:59:18.447Z,67.03
2023-05-21T09:00:18.435Z,67.06
2023-05-21T09:01:18.462Z,67.03
2023-05-21T09:02:18.576Z,66.70
2023-05-21T09:03:18.558Z,66.14
2023-05-21T09:04:20.728Z,65.93
2023-05-21T09:05:18.402Z,66.27
2023-05-21T09:06:18.384Z,66.44
2023-05-21T09:07:18.393Z,66.91
2023-05-21T09:08:18.379Z,67.11
2023-05-21T09:09:18.351Z,67.20
2023-05-21T09:10:18.395Z,67.42
2023-05-21T09:11:18.356Z,67.55
2023-05-21T09:12:18.326Z,67.70
2023-05-21T09:13:18.317Z,67.46
2023-05-21T09:14:18.289Z,67.15
2023-05-21T09:15:18.292Z,66.70
2023-05-21T09:16:18.330Z,66.67
2023-05-21T09:17:18.247Z,67.01
2023-05-21T09:18:18.270Z,67.41
2023-05-21T09:19:18.276Z,67.32
2023-05-21T09:20:18.249Z,67.33
2023-05-21T09:21:18.234Z,67.18
2023-05-21T09:22:18.203Z,67.63
2023-05-21T09:23:18.249Z,67.44
2023-05-21T09:24:18.169Z,67.71
2023-05-21T09:25:18.212Z,67.47
2023-05-21T09:26:18.166Z,67.35
2023-05-21T09:27:18.137Z,67.36
2023-05-21T09:28:18.174Z,67.10
2023-05-21T09:29:18.141Z,67.15
2023-05-21T09:30:18.121Z,67.21
2023-05-21T09:31:18.155Z,67.37
2023-05-21T09:32:18.094Z,67.63
2023-05-21T09:33:18.106Z,67.72
2023-05-21T09:34:18.088Z,67.90
2023-05-21T09:35:18.080Z,68.02
2023-05-21T09:36:18.085Z,68.12
2023-05-21T09:37:26.997Z,67.96
2023-05-21T09:38:19.028Z,67.35
2023-05-21T09:39:18.054Z,67.13
2023-05-21T09:40:17.985Z,66.98
2023-05-21T09:41:21.169Z,67.15
2023-05-21T09:42:17.986Z,67.42
2023-05-21T09:43:17.965Z,67.50
2023-05-21T09:44:17.979Z,67.66
2023-05-21T09:45:17.985Z,67.46
2023-05-21T09:46:17.996Z,67.33
2023-05-21T09:47:17.943Z,67.60
2023-05-21T09:48:17.957Z,66.93
2023-05-21T09:49:17.898Z,67.00
2023-05-21T09:50:17.948Z,66.96
2023-05-21T09:51:17.901Z,66.90
2023-05-21T09:52:17.876Z,66.63
2023-05-21T09:53:17.887Z,67.36
2023-05-21T09:54:17.852Z,67.46
2023-05-21T09:55:17.973Z,67.09
2023-05-21T09:56:17.844Z,66.64
2023-05-21T09:57:17.819Z,66.41
2023-05-21T09:58:17.961Z,66.82
2023-05-21T09:59:17.787Z,66.75
2023-05-21T10:00:17.802Z,66.31
2023-05-21T10:01:17.824Z,66.12
2023-05-21T10:02:17.931Z,66.33
2023-05-21T10:03:17.967Z,66.78
2023-05-21T10:04:17.778Z,66.89
2023-05-21T10:05:17.732Z,66.63
2023-05-21T10:06:17.713Z,66.53
2023-05-21T10:07:17.712Z,65.68
2023-05-21T10:08:17.776Z,66.27
2023-05-21T10:09:17.716Z,65.94
2023-05-21T10:10:17.739Z,65.30
2023-05-21T10:11:17.701Z,65.57
2023-05-21T10:12:17.666Z,66.29
2023-05-21T10:13:17.681Z,66.25
2023-05-21T10:14:17.640Z,65.23
2023-05-21T10:15:17.609Z,64.07
2023-05-21T10:16:17.684Z,63.32
2023-05-21T10:17:17.585Z,62.74
2023-05-21T10:18:17.589Z,61.86
2023-05-21T10:19:17.710Z,60.56
2023-05-21T10:20:17.593Z,60.51
2023-05-21T10:21:17.542Z,59.54
2023-05-21T10:22:17.547Z,60.82
2023-05-21T10:23:17.538Z,61.74
2023-05-21T10:24:17.613Z,62.58
2023-05-21T10:25:17.540Z,62.36
2023-05-21T10:26:17.510Z,62.69
2023-05-21T10:27:17.533Z,62.09
2023-05-21T10:28:17.470Z,62.48
2023-05-21T10:29:19.563Z,63.09
2023-05-21T10:30:17.449Z,63.92
2023-05-21T10:31:17.460Z,64.48
2023-05-21T10:32:17.436Z,64.32
2023-05-21T10:33:17.519Z,64.48
2023-05-21T10:34:17.454Z,64.92
2023-05-21T10:35:17.407Z,66.18
2023-05-21T10:36:17.407Z,65.59
2023-05-21T10:37:17.396Z,65.91
2023-05-21T10:38:17.372Z,64.88
2023-05-21T10:39:17.401Z,65.33
2023-05-21T10:40:17.371Z,64.93
2023-05-21T10:41:17.342Z,66.01
2023-05-21T10:42:17.329Z,65.10
2023-05-21T10:43:17.318Z,65.05
2023-05-21T10:44:17.318Z,65.23
2023-05-21T10:45:17.313Z,64.63
2023-05-21T10:46:17.393Z,63.41
2023-05-21T10:47:17.258Z,63.37
2023-05-21T10:48:17.301Z,61.97
2023-05-21T10:49:17.280Z,61.54
2023-05-21T10:50:17.267Z,61.33
2023-05-21T10:51:17.231Z,62.02
2023-05-21T10:52:17.213Z,62.22
2023-05-21T10:53:17.196Z,62.79
2023-05-21T10:54:17.232Z,62.55
2023-05-21T10:55:17.192Z,62.63
2023-05-21T10:56:17.165Z,63.36
2023-05-21T10:57:17.169Z,63.37
2023-05-21T10:58:17.139Z,63.59
2023-05-21T10:59:17.154Z,64.05
2023-05-21T11:00:17.125Z,64.17
2023-05-21T11:01:17.166Z,64.30
2023-05-21T11:02:17.137Z,64.81
2023-05-21T11:03:17.197Z,65.38
2023-05-21T11:04:17.097Z,64.64
2023-05-21T11:05:17.065Z,65.34
2023-05-21T11:06:17.096Z,64.44
2023-05-21T11:07:17.054Z,64.10
2023-05-21T11:08:17.030Z,64.40
2023-05-21T11:09:17.056Z,64.62
2023-05-21T11:10:17.021Z,65.18
2023-05-21T11:11:17.012Z,65.02
2023-05-21T11:12:16.991Z,65.18
2023-05-21T11:13:16.999Z,63.74
2023-05-21T11:14:17.088Z,63.06
2023-05-21T11:15:16.975Z,63.06
2023-05-21T11:16:16.951Z,61.57
2023-05-21T11:17:17.170Z,60.72
2023-05-21T11:18:16.956Z,61.47
2023-05-21T11:19:16.990Z,60.47
2023-05-21T11:20:16.912Z,58.85
2023-05-21T11:21:16.939Z,57.54
2023-05-21T11:22:16.877Z,57.22
2023-05-21T11:23:16.885Z,55.74
2023-05-21T11:24:16.906Z,55.70
2023-05-21T11:25:16.845Z,55.30
2023-05-21T11:26:16.838Z,56.90
2023-05-21T11:27:16.836Z,57.01
2023-05-21T11:28:16.827Z,56.85
2023-05-21T11:29:16.824Z,57.43
2023-05-21T11:30:16.866Z,57.82
2023-05-21T11:31:16.834Z,58.53
2023-05-21T11:32:16.782Z,59.19
2023-05-21T11:33:16.768Z,59.80
2023-05-21T11:34:16.828Z,60.61
2023-05-21T11:35:16.771Z,61.15
2023-05-21T11:36:16.789Z,61.34
2023-05-21T11:37:16.730Z,61.31
2023-05-21T11:38:16.742Z,61.57
2023-05-21T11:39:16.701Z,57.92
2023-05-21T11:40:16.702Z,55.97
2023-05-21T11:41:16.680Z,56.94
2023-05-21T11:42:16.656Z,56.46
2023-05-21T11:43:16.652Z,54.76
2023-05-21T11:44:16.643Z,57.38
2023-05-21T11:45:16.657Z,56.82
2023-05-21T11:46:16.630Z,57.74
2023-05-21T11:47:16.625Z,58.39
2023-05-21T11:48:16.588Z,58.07
2023-05-21T11:49:16.634Z,57.85
2023-05-21T11:50:16.599Z,57.96
2023-05-21T11:51:16.587Z,56.54
2023-05-21T11:52:16.548Z,57.99
2023-05-21T11:53:16.534Z,57.95
2023-05-21T11:54:16.519Z,59.46
2023-05-21T11:55:16.525Z,57.92
2023-05-21T11:56:16.526Z,55.23
2023-05-21T11:57:16.509Z,57.05
2023-05-21T11:58:16.640Z,59.02
2023-05-21T11:59:18.712Z,56.50
2023-05-21T12:00:16.474Z,57.85
2023-05-21T12:01:16.488Z,56.06
2023-05-21T12:02:16.432Z,52.93
2023-05-21T12:03:16.451Z,56.21
2023-05-21T12:04:16.434Z,56.28
2023-05-21T12:05:16.417Z,56.72
2023-05-21T12:06:16.412Z,55.26
2023-05-21T12:07:16.407Z,56.49
2023-05-21T12:08:16.361Z,56.88
2023-05-21T12:09:16.381Z,57.11
2023-05-21T12:10:16.385Z,53.76
2023-05-21T12:11:16.351Z,55.86
2023-05-21T12:12:16.368Z,57.74
2023-05-21T12:13:16.359Z,56.78
2023-05-21T12:14:16.369Z,56.89
2023-05-21T12:15:16.322Z,58.10
2023-05-21T12:16:16.297Z,54.37
2023-05-21T12:17:16.284Z,55.08
2023-05-21T12:18:16.258Z,56.36
2023-05-21T12:19:16.349Z,55.47
2023-05-21T12:20:16.268Z,55.01
2023-05-21T12:21:16.216Z,52.66
2023-05-21T12:22:16.215Z,54.18
2023-05-21T12:23:16.326Z,51.51
2023-05-21T12:24:16.192Z,49.99
2023-05-21T12:25:16.242Z,49.01
2023-05-21T12:26:16.190Z,49.45
2023-05-21T12:27:16.169Z,47.46
2023-05-21T12:28:16.151Z,47.73
2023-05-21T12:29:16.158Z,48.67
2023-05-21T12:30:16.160Z,48.67
2023-05-21T12:31:16.171Z,46.08
2023-05-21T12:32:16.158Z,44.82
2023-05-21T12:33:16.113Z,44.75
2023-05-21T12:34:16.084Z,46.19
2023-05-21T12:35:16.132Z,44.92
2023-05-21T12:36:16.060Z,44.60
2023-05-21T12:37:16.108Z,44.17
2023-05-21T12:38:16.050Z,44.06
2023-05-21T12:39:16.039Z,46.17
2023-05-21T12:40:16.030Z,47.38
2023-05-21T12:41:16.021Z,47.51
2023-05-21T12:42:16.033Z,46.79
2023-05-21T12:43:15.997Z,47.50
2023-05-21T12:44:15.988Z,48.28
2023-05-21T12:45:15.980Z,49.15
2023-05-21T12:46:16.034Z,49.99
2023-05-21T12:47:15.990Z,49.52
2023-05-21T12:48:15.931Z,49.54
2023-05-21T12:49:15.939Z,49.49
2023-05-21T12:50:15.933Z,50.90
2023-05-21T12:51:15.911Z,50.49
2023-05-21T12:52:15.892Z,51.68
2023-05-21T12:53:15.901Z,49.73